sensor_id;sensor_type;location;lat;lon;timestamp;P1;durP1;ratioP1;P2;durP2;ratioP2
59872;SDS011;50750;51.636;4.948;2023-03-26T00:01:14;9.40;;;2.10;;
59872;SDS011;50750;51.636;4.948;2023-03-26T00:03:46;8.60;;;1.90;;
59872;SDS011;50750;51.636;4.948;2023-03-26T00:06:19;7.40;;;1.90;;
59872;SDS011;50750;51.636;4.948;2023-03-26T00:08:50;9.00;;;2.10;;
59872;SDS011;50750;51.636;4.948;2023-03-26T00:11:18;7.40;;;1.70;;
59872;SDS011;50750;51.636;4.948;2023-03-26T00:13:47;7.20;;;1.80;;
59872;SDS011;50750;51.636;4.948;2023-03-26T00:16:16;6.20;;;1.90;;
59872;SDS011;50750;51.636;4.948;2023-03-26T00:18:44;4.00;;;1.50;;
59872;SDS011;50750;51.636;4.948;2023-03-26T00:21:13;9.80;;;1.90;;
59872;SDS011;50750;51.636;4.948;2023-03-26T00:23:41;11.40;;;2.30;;
59872;SDS011;50750;51.636;4.948;2023-03-26T00:26:09;9.60;;;2.40;;
59872;SDS011;50750;51.636;4.948;2023-03-26T00:28:36;6.50;;;1.70;;
59872;SDS011;50750;51.636;4.948;2023-03-26T00:31:06;7.20;;;2.10;;
59872;SDS011;50750;51.636;4.948;2023-03-26T00:33:37;6.70;;;2.00;;
59872;SDS011;50750;51.636;4.948;2023-03-26T00:36:06;10.20;;;2.00;;
59872;SDS011;50750;51.636;4.948;2023-03-26T00:38:36;6.40;;;1.80;;
59872;SDS011;50750;51.636;4.948;2023-03-26T00:41:05;10.80;;;2.30;;
59872;SDS011;50750;51.636;4.948;2023-03-26T00:43:33;8.00;;;2.20;;
59872;SDS011;50750;51.636;4.948;2023-03-26T00:46:01;7.50;;;2.00;;
59872;SDS011;50750;51.636;4.948;2023-03-26T00:48:28;9.90;;;2.10;;
59872;SDS011;50750;51.636;4.948;2023-03-26T00:50:55;9.40;;;2.10;;
59872;SDS011;50750;51.636;4.948;2023-03-26T00:53:22;9.90;;;2.20;;
59872;SDS011;50750;51.636;4.948;2023-03-26T00:55:49;8.30;;;2.20;;
59872;SDS011;50750;51.636;4.948;2023-03-26T00:58:15;8.20;;;2.00;;
59872;SDS011;50750;51.636;4.948;2023-03-26T01:00:45;9.30;;;2.00;;
59872;SDS011;50750;51.636;4.948;2023-03-26T01:03:17;7.90;;;1.80;;
59872;SDS011;50750;51.636;4.948;2023-03-26T01:05:48;5.80;;;1.50;;
59872;SDS011;50750;51.636;4.948;2023-03-26T01:08:39;4.50;;;1.40;;
59872;SDS011;50750;51.636;4.948;2023-03-26T01:11:17;5.40;;;1.60;;
59872;SDS011;50750;51.636;4.948;2023-03-26T01:13:58;5.40;;;1.80;;
59872;SDS011;50750;51.636;4.948;2023-03-26T01:16:32;5.50;;;1.60;;
59872;SDS011;50750;51.636;4.948;2023-03-26T01:19:13;7.40;;;1.90;;
59872;SDS011;50750;51.636;4.948;2023-03-26T01:21:48;7.00;;;2.10;;
59872;SDS011;50750;51.636;4.948;2023-03-26T01:24:14;7.70;;;1.90;;
59872;SDS011;50750;51.636;4.948;2023-03-26T01:32:21;6.40;;;1.90;;
59872;SDS011;50750;51.636;4.948;2023-03-26T01:40:44;7.50;;;2.10;;
59872;SDS011;50750;51.636;4.948;2023-03-26T01:46:07;6.30;;;1.90;;
59872;SDS011;50750;51.636;4.948;2023-03-26T01:51:05;7.70;;;2.20;;
59872;SDS011;50750;51.636;4.948;2023-03-26T01:53:34;7.10;;;2.00;;
59872;SDS011;50750;51.636;4.948;2023-03-26T02:01:24;8.10;;;2.20;;
59872;SDS011;50750;51.636;4.948;2023-03-26T02:04:00;6.50;;;1.80;;
59872;SDS011;50750;51.636;4.948;2023-03-26T02:06:52;7.20;;;2.00;;
59872;SDS011;50750;51.636;4.948;2023-03-26T02:09:24;6.20;;;1.60;;
59872;SDS011;50750;51.636;4.948;2023-03-26T02:11:57;8.00;;;2.10;;
59872;SDS011;50750;51.636;4.948;2023-03-26T02:14:24;7.20;;;1.80;;
59872;SDS011;50750;51.636;4.948;2023-03-26T02:16:53;8.80;;;2.20;;
59872;SDS011;50750;51.636;4.948;2023-03-26T02:19:21;7.90;;;2.10;;
59872;SDS011;50750;51.636;4.948;2023-03-26T02:21:49;5.40;;;1.90;;
59872;SDS011;50750;51.636;4.948;2023-03-26T02:24:17;5.40;;;1.80;;
59872;SDS011;50750;51.636;4.948;2023-03-26T02:26:44;5.20;;;1.50;;
59872;SDS011;50750;51.636;4.948;2023-03-26T02:29:13;5.60;;;1.70;;
59872;SDS011;50750;51.636;4.948;2023-03-26T02:31:44;5.80;;;1.70;;
59872;SDS011;50750;51.636;4.948;2023-03-26T02:34:14;5.30;;;1.80;;
59872;SDS011;50750;51.636;4.948;2023-03-26T02:36:41;5.60;;;1.90;;
59872;SDS011;50750;51.636;4.948;2023-03-26T02:39:08;6.70;;;2.00;;
59872;SDS011;50750;51.636;4.948;2023-03-26T02:41:39;8.90;;;2.00;;
59872;SDS011;50750;51.636;4.948;2023-03-26T02:44:06;7.00;;;1.70;;
59872;SDS011;50750;51.636;4.948;2023-03-26T02:46:32;8.00;;;2.00;;
59872;SDS011;50750;51.636;4.948;2023-03-26T02:48:59;5.40;;;1.60;;
59872;SDS011;50750;51.636;4.948;2023-03-26T02:51:26;8.00;;;1.90;;
59872;SDS011;50750;51.636;4.948;2023-03-26T02:53:52;5.50;;;1.60;;
59872;SDS011;50750;51.636;4.948;2023-03-26T02:56:19;4.10;;;1.40;;
59872;SDS011;50750;51.636;4.948;2023-03-26T02:58:46;6.50;;;1.90;;
59872;SDS011;50750;51.636;4.948;2023-03-26T03:01:13;5.50;;;1.50;;
59872;SDS011;50750;51.636;4.948;2023-03-26T03:06:10;6.50;;;1.70;;
59872;SDS011;50750;51.636;4.948;2023-03-26T03:08:36;7.20;;;2.00;;
59872;SDS011;50750;51.636;4.948;2023-03-26T03:11:06;5.60;;;1.70;;
59872;SDS011;50750;51.636;4.948;2023-03-26T03:13:47;6.10;;;1.90;;
59872;SDS011;50750;51.636;4.948;2023-03-26T03:16:13;6.10;;;1.90;;
59872;SDS011;50750;51.636;4.948;2023-03-26T03:18:40;5.40;;;1.60;;
59872;SDS011;50750;51.636;4.948;2023-03-26T03:21:07;6.80;;;1.60;;
59872;SDS011;50750;51.636;4.948;2023-03-26T03:23:33;6.80;;;1.80;;
59872;SDS011;50750;51.636;4.948;2023-03-26T03:26:00;6.90;;;1.80;;
59872;SDS011;50750;51.636;4.948;2023-03-26T03:28:27;7.30;;;2.00;;
59872;SDS011;50750;51.636;4.948;2023-03-26T03:30:54;7.80;;;1.70;;
59872;SDS011;50750;51.636;4.948;2023-03-26T03:33:22;5.10;;;1.80;;
59872;SDS011;50750;51.636;4.948;2023-03-26T03:35:49;4.70;;;1.40;;
59872;SDS011;50750;51.636;4.948;2023-03-26T03:38:16;6.60;;;1.60;;
59872;SDS011;50750;51.636;4.948;2023-03-26T03:40:44;5.70;;;1.70;;
59872;SDS011;50750;51.636;4.948;2023-03-26T03:43:10;7.40;;;1.90;;
59872;SDS011;50750;51.636;4.948;2023-03-26T03:45:37;5.80;;;1.80;;
59872;SDS011;50750;51.636;4.948;2023-03-26T03:48:04;5.00;;;1.60;;
59872;SDS011;50750;51.636;4.948;2023-03-26T03:50:30;4.70;;;1.70;;
59872;SDS011;50750;51.636;4.948;2023-03-26T03:52:57;5.70;;;1.50;;
59872;SDS011;50750;51.636;4.948;2023-03-26T03:55:24;4.70;;;1.50;;
59872;SDS011;50750;51.636;4.948;2023-03-26T03:57:53;5.10;;;1.80;;
59872;SDS011;50750;51.636;4.948;2023-03-26T04:00:19;5.30;;;1.80;;
59872;SDS011;50750;51.636;4.948;2023-03-26T04:02:47;5.70;;;1.70;;
59872;SDS011;50750;51.636;4.948;2023-03-26T04:05:14;6.10;;;1.90;;
59872;SDS011;50750;51.636;4.948;2023-03-26T04:07:41;4.60;;;1.60;;
59872;SDS011;50750;51.636;4.948;2023-03-26T04:10:08;5.90;;;1.50;;
59872;SDS011;50750;51.636;4.948;2023-03-26T04:12:34;5.50;;;1.70;;
59872;SDS011;50750;51.636;4.948;2023-03-26T04:15:01;5.20;;;1.50;;
59872;SDS011;50750;51.636;4.948;2023-03-26T04:17:29;4.70;;;1.60;;
59872;SDS011;50750;51.636;4.948;2023-03-26T04:19:55;5.10;;;1.30;;
59872;SDS011;50750;51.636;4.948;2023-03-26T04:22:22;4.70;;;1.70;;
59872;SDS011;50750;51.636;4.948;2023-03-26T04:24:49;7.10;;;1.40;;
59872;SDS011;50750;51.636;4.948;2023-03-26T04:27:21;6.10;;;1.50;;
59872;SDS011;50750;51.636;4.948;2023-03-26T04:29:52;5.40;;;1.60;;
59872;SDS011;50750;51.636;4.948;2023-03-26T04:32:22;4.50;;;1.60;;
59872;SDS011;50750;51.636;4.948;2023-03-26T04:34:59;6.10;;;1.80;;
59872;SDS011;50750;51.636;4.948;2023-03-26T04:37:30;8.10;;;1.60;;
59872;SDS011;50750;51.636;4.948;2023-03-26T04:40:00;5.20;;;1.40;;
59872;SDS011;50750;51.636;4.948;2023-03-26T04:42:31;3.60;;;1.30;;
59872;SDS011;50750;51.636;4.948;2023-03-26T04:44:58;3.30;;;1.30;;
59872;SDS011;50750;51.636;4.948;2023-03-26T04:47:28;4.70;;;1.20;;
59872;SDS011;50750;51.636;4.948;2023-03-26T04:49:54;3.70;;;1.10;;
59872;SDS011;50750;51.636;4.948;2023-03-26T04:52:21;5.30;;;1.50;;
59872;SDS011;50750;51.636;4.948;2023-03-26T04:54:47;5.20;;;1.60;;
59872;SDS011;50750;51.636;4.948;2023-03-26T04:57:16;5.00;;;1.40;;
59872;SDS011;50750;51.636;4.948;2023-03-26T04:59:46;3.90;;;1.50;;
59872;SDS011;50750;51.636;4.948;2023-03-26T05:02:13;4.60;;;1.60;;
59872;SDS011;50750;51.636;4.948;2023-03-26T05:04:40;5.10;;;1.30;;
59872;SDS011;50750;51.636;4.948;2023-03-26T05:07:09;4.80;;;1.60;;
59872;SDS011;50750;51.636;4.948;2023-03-26T05:09:36;4.00;;;1.50;;
59872;SDS011;50750;51.636;4.948;2023-03-26T05:12:03;4.60;;;1.50;;
59872;SDS011;50750;51.636;4.948;2023-03-26T05:14:29;5.80;;;1.60;;
59872;SDS011;50750;51.636;4.948;2023-03-26T05:16:56;4.90;;;1.60;;
59872;SDS011;50750;51.636;4.948;2023-03-26T05:19:23;3.30;;;1.40;;
59872;SDS011;50750;51.636;4.948;2023-03-26T05:21:49;4.60;;;1.30;;
59872;SDS011;50750;51.636;4.948;2023-03-26T05:24:16;5.10;;;1.40;;
59872;SDS011;50750;51.636;4.948;2023-03-26T05:26:43;3.80;;;1.50;;
59872;SDS011;50750;51.636;4.948;2023-03-26T05:29:16;6.20;;;1.70;;
59872;SDS011;50750;51.636;4.948;2023-03-26T05:31:43;4.80;;;1.50;;
59872;SDS011;50750;51.636;4.948;2023-03-26T05:34:09;4.50;;;1.50;;
59872;SDS011;50750;51.636;4.948;2023-03-26T05:36:36;4.20;;;1.50;;
59872;SDS011;50750;51.636;4.948;2023-03-26T05:39:03;3.70;;;1.30;;
59872;SDS011;50750;51.636;4.948;2023-03-26T05:41:30;5.40;;;1.40;;
59872;SDS011;50750;51.636;4.948;2023-03-26T05:43:57;4.70;;;1.40;;
59872;SDS011;50750;51.636;4.948;2023-03-26T05:46:23;3.80;;;1.30;;
59872;SDS011;50750;51.636;4.948;2023-03-26T05:48:50;3.70;;;1.40;;
59872;SDS011;50750;51.636;4.948;2023-03-26T05:51:17;3.80;;;1.30;;
59872;SDS011;50750;51.636;4.948;2023-03-26T05:53:43;4.20;;;1.40;;
59872;SDS011;50750;51.636;4.948;2023-03-26T05:56:10;3.20;;;1.20;;
59872;SDS011;50750;51.636;4.948;2023-03-26T05:58:37;4.80;;;1.40;;
59872;SDS011;50750;51.636;4.948;2023-03-26T06:01:08;3.60;;;1.20;;
59872;SDS011;50750;51.636;4.948;2023-03-26T06:03:37;4.10;;;1.20;;
59872;SDS011;50750;51.636;4.948;2023-03-26T06:06:08;5.10;;;1.40;;
59872;SDS011;50750;51.636;4.948;2023-03-26T06:08:44;5.60;;;1.50;;
59872;SDS011;50750;51.636;4.948;2023-03-26T06:11:14;5.10;;;1.30;;
59872;SDS011;50750;51.636;4.948;2023-03-26T06:13:42;3.90;;;1.40;;
59872;SDS011;50750;51.636;4.948;2023-03-26T06:16:10;4.60;;;1.40;;
59872;SDS011;50750;51.636;4.948;2023-03-26T06:18:38;3.40;;;1.40;;
59872;SDS011;50750;51.636;4.948;2023-03-26T06:21:05;2.90;;;0.90;;
59872;SDS011;50750;51.636;4.948;2023-03-26T06:23:32;2.90;;;1.10;;
59872;SDS011;50750;51.636;4.948;2023-03-26T06:25:59;3.20;;;1.00;;
59872;SDS011;50750;51.636;4.948;2023-03-26T06:28:26;3.00;;;0.90;;
59872;SDS011;50750;51.636;4.948;2023-03-26T06:30:52;2.50;;;1.10;;
59872;SDS011;50750;51.636;4.948;2023-03-26T06:33:19;3.00;;;1.20;;
59872;SDS011;50750;51.636;4.948;2023-03-26T06:35:46;3.90;;;1.10;;
59872;SDS011;50750;51.636;4.948;2023-03-26T06:38:12;4.20;;;1.20;;
59872;SDS011;50750;51.636;4.948;2023-03-26T06:40:39;5.70;;;1.40;;
59872;SDS011;50750;51.636;4.948;2023-03-26T06:43:05;4.00;;;1.10;;
59872;SDS011;50750;51.636;4.948;2023-03-26T06:45:32;3.20;;;1.10;;
59872;SDS011;50750;51.636;4.948;2023-03-26T06:47:59;4.20;;;1.30;;
59872;SDS011;50750;51.636;4.948;2023-03-26T06:50:26;3.50;;;1.20;;
59872;SDS011;50750;51.636;4.948;2023-03-26T06:52:54;4.10;;;1.10;;
59872;SDS011;50750;51.636;4.948;2023-03-26T06:55:21;2.90;;;1.10;;
59872;SDS011;50750;51.636;4.948;2023-03-26T06:57:52;5.70;;;1.40;;
59872;SDS011;50750;51.636;4.948;2023-03-26T07:00:20;3.10;;;1.00;;
59872;SDS011;50750;51.636;4.948;2023-03-26T07:02:47;3.40;;;1.10;;
59872;SDS011;50750;51.636;4.948;2023-03-26T07:05:14;3.50;;;1.20;;
59872;SDS011;50750;51.636;4.948;2023-03-26T07:07:40;3.90;;;1.10;;
59872;SDS011;50750;51.636;4.948;2023-03-26T07:10:07;4.50;;;1.20;;
59872;SDS011;50750;51.636;4.948;2023-03-26T07:12:34;3.80;;;1.40;;
59872;SDS011;50750;51.636;4.948;2023-03-26T07:15:01;3.90;;;1.30;;
59872;SDS011;50750;51.636;4.948;2023-03-26T07:17:28;3.30;;;1.10;;
59872;SDS011;50750;51.636;4.948;2023-03-26T07:19:55;3.90;;;1.40;;
59872;SDS011;50750;51.636;4.948;2023-03-26T07:22:23;4.50;;;1.40;;
59872;SDS011;50750;51.636;4.948;2023-03-26T07:24:50;2.80;;;1.00;;
59872;SDS011;50750;51.636;4.948;2023-03-26T07:32:55;4.30;;;1.10;;
59872;SDS011;50750;51.636;4.948;2023-03-26T07:35:31;4.50;;;1.30;;
59872;SDS011;50750;51.636;4.948;2023-03-26T07:46:41;3.70;;;1.20;;
59872;SDS011;50750;51.636;4.948;2023-03-26T07:49:10;2.60;;;1.00;;
59872;SDS011;50750;51.636;4.948;2023-03-26T07:51:38;2.90;;;1.00;;
59872;SDS011;50750;51.636;4.948;2023-03-26T07:54:05;4.00;;;1.10;;
59872;SDS011;50750;51.636;4.948;2023-03-26T07:59:28;2.80;;;1.00;;
59872;SDS011;50750;51.636;4.948;2023-03-26T08:02:25;4.50;;;1.30;;
59872;SDS011;50750;51.636;4.948;2023-03-26T08:16:35;2.50;;;1.00;;
59872;SDS011;50750;51.636;4.948;2023-03-26T08:19:15;2.40;;;1.00;;
59872;SDS011;50750;51.636;4.948;2023-03-26T08:21:58;4.30;;;1.30;;
59872;SDS011;50750;51.636;4.948;2023-03-26T08:30:34;4.00;;;1.10;;
59872;SDS011;50750;51.636;4.948;2023-03-26T08:35:36;2.80;;;1.00;;
59872;SDS011;50750;51.636;4.948;2023-03-26T08:38:08;3.20;;;1.30;;
59872;SDS011;50750;51.636;4.948;2023-03-26T08:40:47;3.70;;;1.00;;
59872;SDS011;50750;51.636;4.948;2023-03-26T08:47:09;4.10;;;1.10;;
59872;SDS011;50750;51.636;4.948;2023-03-26T08:57:23;3.20;;;1.20;;
59872;SDS011;50750;51.636;4.948;2023-03-26T09:20:17;3.90;;;1.00;;
59872;SDS011;50750;51.636;4.948;2023-03-26T09:23:17;2.30;;;0.80;;
59872;SDS011;50750;51.636;4.948;2023-03-26T09:31:19;3.70;;;1.20;;
59872;SDS011;50750;51.636;4.948;2023-03-26T09:39:51;2.40;;;1.00;;
59872;SDS011;50750;51.636;4.948;2023-03-26T09:42:52;2.90;;;1.10;;
59872;SDS011;50750;51.636;4.948;2023-03-26T09:56:33;2.50;;;1.00;;
59872;SDS011;50750;51.636;4.948;2023-03-26T09:59:38;3.40;;;1.00;;
59872;SDS011;50750;51.636;4.948;2023-03-26T10:10:17;2.20;;;0.90;;
59872;SDS011;50750;51.636;4.948;2023-03-26T10:13:07;2.90;;;1.10;;
59872;SDS011;50750;51.636;4.948;2023-03-26T10:38:30;2.10;;;0.90;;
59872;SDS011;50750;51.636;4.948;2023-03-26T10:52:18;2.10;;;0.90;;
59872;SDS011;50750;51.636;4.948;2023-03-26T11:00:22;1.60;;;0.80;;
59872;SDS011;50750;51.636;4.948;2023-03-26T11:13:01;3.80;;;1.20;;
59872;SDS011;50750;51.636;4.948;2023-03-26T11:15:39;3.10;;;1.00;;
59872;SDS011;50750;51.636;4.948;2023-03-26T11:21:07;1.90;;;1.00;;
59872;SDS011;50750;51.636;4.948;2023-03-26T11:23:55;2.50;;;0.80;;
59872;SDS011;50750;51.636;4.948;2023-03-26T11:26:55;1.90;;;0.80;;
59872;SDS011;50750;51.636;4.948;2023-03-26T11:32:44;2.60;;;1.00;;
59872;SDS011;50750;51.636;4.948;2023-03-26T11:35:16;2.80;;;0.90;;
59872;SDS011;50750;51.636;4.948;2023-03-26T11:38:04;1.80;;;0.80;;
59872;SDS011;50750;51.636;4.948;2023-03-26T11:40:40;2.70;;;1.00;;
59872;SDS011;50750;51.636;4.948;2023-03-26T11:43:11;2.50;;;0.80;;
59872;SDS011;50750;51.636;4.948;2023-03-26T11:45:41;1.50;;;0.70;;
59872;SDS011;50750;51.636;4.948;2023-03-26T11:51:01;2.40;;;0.90;;
59872;SDS011;50750;51.636;4.948;2023-03-26T11:53:32;2.40;;;0.90;;
59872;SDS011;50750;51.636;4.948;2023-03-26T11:56:07;1.40;;;0.70;;
59872;SDS011;50750;51.636;4.948;2023-03-26T11:58:48;2.50;;;0.80;;
59872;SDS011;50750;51.636;4.948;2023-03-26T12:01:24;2.40;;;0.80;;
59872;SDS011;50750;51.636;4.948;2023-03-26T12:04:05;2.00;;;1.10;;
59872;SDS011;50750;51.636;4.948;2023-03-26T12:06:38;2.20;;;0.70;;
59872;SDS011;50750;51.636;4.948;2023-03-26T12:09:17;1.30;;;0.60;;
59872;SDS011;50750;51.636;4.948;2023-03-26T12:11:45;2.40;;;0.90;;
59872;SDS011;50750;51.636;4.948;2023-03-26T12:14:15;2.20;;;0.80;;
59872;SDS011;50750;51.636;4.948;2023-03-26T12:19:37;2.10;;;0.90;;
59872;SDS011;50750;51.636;4.948;2023-03-26T12:22:25;2.40;;;0.80;;
59872;SDS011;50750;51.636;4.948;2023-03-26T12:25:02;2.10;;;0.80;;
59872;SDS011;50750;51.636;4.948;2023-03-26T12:28:34;1.20;;;0.80;;
59872;SDS011;50750;51.636;4.948;2023-03-26T12:33:14;1.70;;;0.70;;
59872;SDS011;50750;51.636;4.948;2023-03-26T12:35:44;1.50;;;0.80;;
59872;SDS011;50750;51.636;4.948;2023-03-26T12:41:08;1.70;;;0.70;;
59872;SDS011;50750;51.636;4.948;2023-03-26T12:43:47;1.80;;;0.80;;
59872;SDS011;50750;51.636;4.948;2023-03-26T12:48:51;1.70;;;0.80;;
59872;SDS011;50750;51.636;4.948;2023-03-26T12:51:29;1.40;;;0.70;;
59872;SDS011;50750;51.636;4.948;2023-03-26T12:57:01;1.70;;;0.80;;
59872;SDS011;50750;51.636;4.948;2023-03-26T13:10:34;1.90;;;0.90;;
59872;SDS011;50750;51.636;4.948;2023-03-26T13:15:59;1.30;;;0.70;;
59872;SDS011;50750;51.636;4.948;2023-03-26T13:21:27;1.60;;;0.80;;
59872;SDS011;50750;51.636;4.948;2023-03-26T13:32:19;2.00;;;0.90;;
59872;SDS011;50750;51.636;4.948;2023-03-26T13:48:25;3.50;;;1.10;;
59872;SDS011;50750;51.636;4.948;2023-03-26T13:50:56;3.20;;;1.10;;
59872;SDS011;50750;51.636;4.948;2023-03-26T13:53:32;3.90;;;1.20;;
59872;SDS011;50750;51.636;4.948;2023-03-26T13:56:05;4.50;;;1.20;;
59872;SDS011;50750;51.636;4.948;2023-03-26T14:01:11;5.20;;;1.10;;
59872;SDS011;50750;51.636;4.948;2023-03-26T14:03:57;3.80;;;1.40;;
59872;SDS011;50750;51.636;4.948;2023-03-26T14:09:29;3.80;;;1.40;;
59872;SDS011;50750;51.636;4.948;2023-03-26T14:12:13;4.50;;;1.30;;
59872;SDS011;50750;51.636;4.948;2023-03-26T14:14:46;3.90;;;1.40;;
59872;SDS011;50750;51.636;4.948;2023-03-26T14:19:53;2.70;;;1.30;;
59872;SDS011;50750;51.636;4.948;2023-03-26T14:40:05;3.80;;;1.20;;
59872;SDS011;50750;51.636;4.948;2023-03-26T14:43:02;5.60;;;1.20;;
59872;SDS011;50750;51.636;4.948;2023-03-26T14:45:55;4.00;;;1.20;;
59872;SDS011;50750;51.636;4.948;2023-03-26T14:48:31;5.00;;;1.40;;
59872;SDS011;50750;51.636;4.948;2023-03-26T14:53:58;2.80;;;1.10;;
59872;SDS011;50750;51.636;4.948;2023-03-26T15:20:10;4.40;;;1.30;;
59872;SDS011;50750;51.636;4.948;2023-03-26T15:35:01;4.20;;;1.40;;
59872;SDS011;50750;51.636;4.948;2023-03-26T15:37:46;5.00;;;1.50;;
59872;SDS011;50750;51.636;4.948;2023-03-26T15:43:10;3.40;;;1.10;;
59872;SDS011;50750;51.636;4.948;2023-03-26T15:59:30;5.10;;;1.40;;
59872;SDS011;50750;51.636;4.948;2023-03-26T16:04:43;6.30;;;1.60;;
59872;SDS011;50750;51.636;4.948;2023-03-26T16:10:12;4.00;;;1.30;;
59872;SDS011;50750;51.636;4.948;2023-03-26T16:15:54;4.30;;;1.30;;
59872;SDS011;50750;51.636;4.948;2023-03-26T16:18:29;4.50;;;1.40;;
59872;SDS011;50750;51.636;4.948;2023-03-26T16:21:31;6.50;;;1.40;;
59872;SDS011;50750;51.636;4.948;2023-03-26T16:29:14;3.10;;;1.00;;
59872;SDS011;50750;51.636;4.948;2023-03-26T16:34:49;5.60;;;1.40;;
59872;SDS011;50750;51.636;4.948;2023-03-26T16:37:38;5.10;;;2.00;;
59872;SDS011;50750;51.636;4.948;2023-03-26T16:48:24;5.20;;;1.20;;
59872;SDS011;50750;51.636;4.948;2023-03-26T16:51:05;3.10;;;1.00;;
59872;SDS011;50750;51.636;4.948;2023-03-26T16:53:51;4.70;;;1.30;;
59872;SDS011;50750;51.636;4.948;2023-03-26T16:59:00;4.30;;;1.40;;
59872;SDS011;50750;51.636;4.948;2023-03-26T17:01:39;4.10;;;1.10;;
59872;SDS011;50750;51.636;4.948;2023-03-26T17:04:12;3.30;;;1.40;;
59872;SDS011;50750;51.636;4.948;2023-03-26T17:06:56;5.70;;;1.30;;
59872;SDS011;50750;51.636;4.948;2023-03-26T17:13:03;3.10;;;1.20;;
59872;SDS011;50750;51.636;4.948;2023-03-26T17:15:44;5.20;;;1.20;;
59872;SDS011;50750;51.636;4.948;2023-03-26T17:44:53;4.80;;;1.40;;
59872;SDS011;50750;51.636;4.948;2023-03-26T17:50:02;4.50;;;1.30;;
59872;SDS011;50750;51.636;4.948;2023-03-26T17:55:18;5.80;;;1.30;;
59872;SDS011;50750;51.636;4.948;2023-03-26T17:57:49;3.50;;;1.30;;
59872;SDS011;50750;51.636;4.948;2023-03-26T18:00:20;6.50;;;1.30;;
59872;SDS011;50750;51.636;4.948;2023-03-26T18:02:59;4.80;;;1.30;;
59872;SDS011;50750;51.636;4.948;2023-03-26T18:05:31;4.70;;;1.20;;
59872;SDS011;50750;51.636;4.948;2023-03-26T18:16:17;6.70;;;1.70;;
59872;SDS011;50750;51.636;4.948;2023-03-26T18:21:29;5.80;;;1.90;;
59872;SDS011;50750;51.636;4.948;2023-03-26T18:24:01;4.90;;;1.60;;
59872;SDS011;50750;51.636;4.948;2023-03-26T18:26:34;5.50;;;1.70;;
59872;SDS011;50750;51.636;4.948;2023-03-26T18:29:09;4.70;;;1.70;;
59872;SDS011;50750;51.636;4.948;2023-03-26T18:31:59;5.40;;;1.90;;
59872;SDS011;50750;51.636;4.948;2023-03-26T18:34:48;6.10;;;1.60;;
59872;SDS011;50750;51.636;4.948;2023-03-26T18:37:22;5.20;;;1.50;;
59872;SDS011;50750;51.636;4.948;2023-03-26T18:40:00;5.40;;;1.80;;
59872;SDS011;50750;51.636;4.948;2023-03-26T18:42:38;8.40;;;2.20;;
59872;SDS011;50750;51.636;4.948;2023-03-26T18:45:07;6.70;;;1.70;;
59872;SDS011;50750;51.636;4.948;2023-03-26T18:47:42;3.30;;;1.50;;
59872;SDS011;50750;51.636;4.948;2023-03-26T18:50:12;4.20;;;1.60;;
59872;SDS011;50750;51.636;4.948;2023-03-26T18:52:42;5.80;;;1.70;;
59872;SDS011;50750;51.636;4.948;2023-03-26T18:55:11;5.00;;;1.70;;
59872;SDS011;50750;51.636;4.948;2023-03-26T18:57:41;5.50;;;1.50;;
59872;SDS011;50750;51.636;4.948;2023-03-26T19:00:16;4.40;;;1.60;;
59872;SDS011;50750;51.636;4.948;2023-03-26T19:02:46;5.60;;;1.70;;
59872;SDS011;50750;51.636;4.948;2023-03-26T19:05:16;3.50;;;1.40;;
59872;SDS011;50750;51.636;4.948;2023-03-26T19:07:44;4.50;;;1.50;;
59872;SDS011;50750;51.636;4.948;2023-03-26T19:10:13;3.90;;;1.50;;
59872;SDS011;50750;51.636;4.948;2023-03-26T19:12:54;8.00;;;1.80;;
59872;SDS011;50750;51.636;4.948;2023-03-26T19:15:23;6.20;;;1.70;;
59872;SDS011;50750;51.636;4.948;2023-03-26T19:17:53;5.90;;;1.60;;
59872;SDS011;50750;51.636;4.948;2023-03-26T19:20:26;4.50;;;1.50;;
59872;SDS011;50750;51.636;4.948;2023-03-26T19:22:55;6.40;;;1.70;;
59872;SDS011;50750;51.636;4.948;2023-03-26T19:25:32;3.30;;;1.40;;
59872;SDS011;50750;51.636;4.948;2023-03-26T19:28:04;5.00;;;1.60;;
59872;SDS011;50750;51.636;4.948;2023-03-26T19:30:32;3.40;;;1.40;;
59872;SDS011;50750;51.636;4.948;2023-03-26T19:33:05;5.50;;;1.40;;
59872;SDS011;50750;51.636;4.948;2023-03-26T19:35:44;5.50;;;1.90;;
59872;SDS011;50750;51.636;4.948;2023-03-26T19:40:55;5.50;;;1.90;;
59872;SDS011;50750;51.636;4.948;2023-03-26T19:43:23;4.50;;;1.90;;
59872;SDS011;50750;51.636;4.948;2023-03-26T19:45:51;5.60;;;2.00;;
59872;SDS011;50750;51.636;4.948;2023-03-26T19:48:19;5.60;;;1.90;;
59872;SDS011;50750;51.636;4.948;2023-03-26T19:50:58;5.40;;;2.00;;
59872;SDS011;50750;51.636;4.948;2023-03-26T19:53:31;5.60;;;2.00;;
59872;SDS011;50750;51.636;4.948;2023-03-26T19:56:10;4.40;;;1.60;;
59872;SDS011;50750;51.636;4.948;2023-03-26T20:01:41;4.00;;;1.70;;
59872;SDS011;50750;51.636;4.948;2023-03-26T20:04:04;5.20;;;1.90;;
59872;SDS011;50750;51.636;4.948;2023-03-26T20:06:35;4.00;;;1.60;;
59872;SDS011;50750;51.636;4.948;2023-03-26T20:09:04;4.70;;;1.60;;
59872;SDS011;50750;51.636;4.948;2023-03-26T20:11:32;5.70;;;1.80;;
59872;SDS011;50750;51.636;4.948;2023-03-26T20:16:57;5.80;;;1.70;;
59872;SDS011;50750;51.636;4.948;2023-03-26T20:19:24;4.30;;;1.50;;
59872;SDS011;50750;51.636;4.948;2023-03-26T20:21:51;5.60;;;1.90;;
59872;SDS011;50750;51.636;4.948;2023-03-26T20:24:18;3.70;;;1.60;;
59872;SDS011;50750;51.636;4.948;2023-03-26T20:26:46;5.50;;;1.50;;
59872;SDS011;50750;51.636;4.948;2023-03-26T20:29:13;4.70;;;1.70;;
59872;SDS011;50750;51.636;4.948;2023-03-26T20:31:40;5.70;;;1.70;;
59872;SDS011;50750;51.636;4.948;2023-03-26T20:34:10;5.20;;;1.80;;
59872;SDS011;50750;51.636;4.948;2023-03-26T20:36:45;5.20;;;1.50;;
59872;SDS011;50750;51.636;4.948;2023-03-26T20:39:12;3.10;;;1.40;;
59872;SDS011;50750;51.636;4.948;2023-03-26T20:41:41;3.40;;;1.40;;
59872;SDS011;50750;51.636;4.948;2023-03-26T20:44:11;4.70;;;1.30;;
59872;SDS011;50750;51.636;4.948;2023-03-26T20:46:40;6.50;;;1.70;;
59872;SDS011;50750;51.636;4.948;2023-03-26T20:49:08;4.00;;;1.30;;
59872;SDS011;50750;51.636;4.948;2023-03-26T20:51:36;6.30;;;1.70;;
59872;SDS011;50750;51.636;4.948;2023-03-26T20:54:04;6.20;;;1.70;;
59872;SDS011;50750;51.636;4.948;2023-03-26T20:56:32;6.10;;;1.40;;
59872;SDS011;50750;51.636;4.948;2023-03-26T20:59:00;5.00;;;1.50;;
59872;SDS011;50750;51.636;4.948;2023-03-26T21:01:26;4.70;;;1.60;;
59872;SDS011;50750;51.636;4.948;2023-03-26T21:03:53;5.70;;;1.80;;
59872;SDS011;50750;51.636;4.948;2023-03-26T21:06:19;3.80;;;1.50;;
59872;SDS011;50750;51.636;4.948;2023-03-26T21:08:46;4.50;;;1.60;;
59872;SDS011;50750;51.636;4.948;2023-03-26T21:11:16;3.50;;;1.30;;
59872;SDS011;50750;51.636;4.948;2023-03-26T21:13:51;3.30;;;1.50;;
59872;SDS011;50750;51.636;4.948;2023-03-26T21:18:55;4.30;;;1.50;;
59872;SDS011;50750;51.636;4.948;2023-03-26T21:21:41;4.40;;;1.40;;
59872;SDS011;50750;51.636;4.948;2023-03-26T21:27:07;3.50;;;1.20;;
59872;SDS011;50750;51.636;4.948;2023-03-26T21:29:42;4.90;;;1.30;;
59872;SDS011;50750;51.636;4.948;2023-03-26T21:32:09;4.60;;;1.50;;
59872;SDS011;50750;51.636;4.948;2023-03-26T21:34:37;5.10;;;1.50;;
59872;SDS011;50750;51.636;4.948;2023-03-26T21:37:05;4.90;;;1.30;;
59872;SDS011;50750;51.636;4.948;2023-03-26T21:39:33;3.10;;;1.30;;
59872;SDS011;50750;51.636;4.948;2023-03-26T21:42:00;5.00;;;1.70;;
59872;SDS011;50750;51.636;4.948;2023-03-26T21:44:27;4.10;;;1.20;;
59872;SDS011;50750;51.636;4.948;2023-03-26T21:46:54;4.30;;;1.30;;
59872;SDS011;50750;51.636;4.948;2023-03-26T21:49:21;6.30;;;1.40;;
59872;SDS011;50750;51.636;4.948;2023-03-26T21:51:48;4.20;;;1.30;;
59872;SDS011;50750;51.636;4.948;2023-03-26T22:02:54;4.40;;;1.20;;
59872;SDS011;50750;51.636;4.948;2023-03-26T22:05:50;5.00;;;1.50;;
59872;SDS011;50750;51.636;4.948;2023-03-26T22:08:30;5.10;;;1.20;;